Time;durP1;ratioP1;P1;durP2;ratioP2;P2;SDS_P1;SDS_P2;PMS_P1;PMS_P2;Temp;Humidity;BMP_temperature;BMP_pressure;BME280_temperature;BME280_humidity;BME280_pressure;Samples;Min_cycle;Max_cycle;Signal;HPM_P1;HPM_P2
2022/12/26 00:01:47;;;;;;;20.73;10.55;;;4.70;99.90;;;;;;5050627;28;20037;-61
2022/12/26 00:04:15;;;;;;;20.63;10.50;;;4.80;99.90;;;;;;5049475;28;20142;-61
2022/12/26 00:07:02;;;;;;;20.42;8.90;;;4.80;99.90;;;;;;5050838;28;20520;-61
2022/12/26 00:09:31;;;;;;;17.73;9.30;;;4.80;99.90;;;;;;5049907;28;20049;-61
2022/12/26 00:11:58;;;;;;;17.38;9.02;;;4.80;99.90;;;;;;5050165;28;20563;-61
2022/12/26 00:14:25;;;;;;;16.33;9.35;;;4.80;99.90;;;;;;5049374;28;20099;-61
2022/12/26 00:16:52;;;;;;;19.20;8.90;;;4.90;99.90;;;;;;5051074;28;20033;-61
2022/12/26 00:19:18;;;;;;;18.45;8.57;;;4.80;99.90;;;;;;5049340;28;20037;-61
2022/12/26 00:21:45;;;;;;;11.25;6.53;;;4.80;99.90;;;;;;5065818;22;20078;-60
2022/12/26 00:24:12;;;;;;;12.60;6.78;;;4.90;99.90;;;;;;5066576;28;20497;-60
2022/12/26 00:26:39;;;;;;;15.75;8.43;;;4.80;99.90;;;;;;5070574;28;20077;-60
2022/12/26 00:29:05;;;;;;;14.52;7.75;;;4.90;99.90;;;;;;5069651;28;20037;-60
2022/12/26 00:31:34;;;;;;;12.85;7.13;;;5.00;99.90;;;;;;5066710;28;20048;-60
2022/12/26 00:34:01;;;;;;;;;;;4.90;99.90;;;;;;5065961;28;20404;-60
2022/12/26 00:36:31;;;;;;;13.25;7.32;;;4.90;99.90;;;;;;5070173;28;20384;-60
2022/12/26 00:38:59;;;;;;;13.65;7.60;;;4.90;99.90;;;;;;5069763;28;20033;-60
2022/12/26 00:41:27;;;;;;;18.10;8.30;;;4.90;99.90;;;;;;5065880;28;20494;-60
2022/12/26 00:43:54;;;;;;;15.98;9.02;;;4.90;99.90;;;;;;5069717;28;20040;-60
2022/12/26 00:46:23;;;;;;;17.15;9.63;;;4.90;99.90;;;;;;5070335;28;20032;-60
2022/12/26 00:48:50;;;;;;;19.27;8.90;;;5.00;99.90;;;;;;5069685;28;20115;-60
2022/12/26 00:51:17;;;;;;;17.85;7.35;;;5.00;99.90;;;;;;5064655;28;20068;-60
2022/12/26 00:53:44;;;;;;;18.63;8.88;;;5.00;99.90;;;;;;5069442;28;20032;-60
2022/12/26 00:56:11;;;;;;;14.48;8.10;;;5.00;99.90;;;;;;5070224;28;20089;-60
2022/12/26 00:58:39;;;;;;;15.88;7.75;;;5.00;99.90;;;;;;5069706;28;20036;-60
2022/12/26 01:01:16;;;;;;;9.18;4.63;;;5.00;99.90;;;;;;5069961;28;20028;-60
2022/12/26 01:03:45;;;;;;;9.05;4.47;;;4.90;99.90;;;;;;5073751;28;20106;-60
2022/12/26 01:06:12;;;;;;;12.68;7.05;;;4.80;99.90;;;;;;5073993;28;20638;-60
2022/12/26 01:08:39;;;;;;;17.42;8.13;;;4.80;99.90;;;;;;5072187;28;20053;-60
2022/12/26 01:11:11;;;;;;;15.02;8.15;;;4.90;99.90;;;;;;5074080;28;20072;-60
2022/12/26 01:13:38;;;;;;;16.88;8.15;;;4.90;99.90;;;;;;5073063;28;20086;-60
2022/12/26 01:16:05;;;;;;;16.58;9.13;;;4.90;99.90;;;;;;5065933;28;20037;-60
2022/12/26 01:18:33;;;;;;;;;;;4.90;99.90;;;;;;5074347;28;20485;-60
2022/12/26 01:21:06;;;;;;;9.27;5.30;;;4.90;99.90;;;;;;5063401;28;19956;-60
2022/12/26 01:23:32;;;;;;;6.60;3.33;;;4.80;99.90;;;;;;5073758;28;20094;-60
2022/12/26 01:25:59;;;;;;;6.03;3.72;;;4.70;99.90;;;;;;5069057;28;20094;-60
2022/12/26 01:28:49;;;;;;;10.35;5.47;;;4.70;99.90;;;;;;5073986;28;20060;-60
2022/12/26 01:31:18;;;;;;;12.73;6.68;;;4.70;99.90;;;;;;5073034;28;20052;-60
2022/12/26 01:33:45;;;;;;;10.63;6.38;;;4.70;99.90;;;;;;5071186;28;20059;-60
2022/12/26 01:36:12;;;;;;;14.65;7.22;;;4.70;99.90;;;;;;5070288;28;20064;-60
2022/12/26 01:38:39;;;;;;;9.70;6.35;;;4.70;99.90;;;;;;5068359;28;20086;-60
2022/12/26 01:41:18;;;;;;;9.82;5.40;;;4.80;99.90;;;;;;5067307;28;20501;-60
2022/12/26 01:43:56;;;;;;;11.35;5.88;;;4.70;99.90;;;;;;5071983;28;20072;-60
2022/12/26 01:46:29;;;;;;;12.17;6.50;;;4.70;99.90;;;;;;5072860;28;20570;-60
2022/12/26 01:49:06;;;;;;;14.30;6.85;;;4.70;99.90;;;;;;5071241;28;20040;-60
2022/12/26 01:51:37;;;;;;;12.82;6.82;;;4.70;99.90;;;;;;5067269;28;20040;-60
2022/12/26 01:54:06;;;;;;;12.60;6.63;;;4.70;99.90;;;;;;5073542;28;20062;-60
2022/12/26 01:56:53;;;;;;;12.75;7.05;;;4.70;99.90;;;;;;5068986;28;20047;-60
2022/12/26 01:59:27;;;;;;;11.80;6.63;;;4.70;99.90;;;;;;5063156;28;20048;-60
2022/12/26 02:01:54;;;;;;;11.38;6.18;;;4.60;99.90;;;;;;5059822;28;20074;-60
2022/12/26 02:07:19;;;;;;;10.95;6.30;;;4.60;99.90;;;;;;5073331;28;20110;-60
2022/12/26 02:09:46;;;;;;;12.95;6.35;;;4.60;99.90;;;;;;5067291;28;20045;-60
2022/12/26 02:12:27;;;;;;;12.50;6.63;;;4.60;99.90;;;;;;5069412;28;20049;-60
2022/12/26 02:15:09;;;;;;;10.57;6.38;;;4.50;99.90;;;;;;5072388;28;20041;-60
2022/12/26 02:17:36;;;;;;;14.63;7.68;;;4.50;99.90;;;;;;5073514;28;20542;-60
2022/12/26 02:20:18;;;;;;;14.40;7.88;;;4.50;99.90;;;;;;5068757;28;20036;-60
2022/12/26 02:23:21;;;;;;;14.65;7.82;;;4.50;99.90;;;;;;5072526;28;20044;-60
2022/12/26 02:26:22;;;;;;;14.35;6.85;;;4.50;99.90;;;;;;5071851;28;20045;-60
2022/12/26 02:29:12;;;;;;;14.70;6.78;;;4.50;99.90;;;;;;5062951;28;20040;-60
2022/12/26 02:31:47;;;;;;;13.07;6.53;;;4.50;99.90;;;;;;5065758;28;20517;-60
2022/12/26 02:34:38;;;;;;;13.45;6.93;;;4.40;99.90;;;;;;5064309;28;20043;-60
2022/12/26 02:37:12;;;;;;;9.63;5.90;;;4.40;99.90;;;;;;5072665;28;20540;-60
2022/12/26 02:40:07;;;;;;;13.98;6.32;;;4.40;99.90;;;;;;5069022;28;20045;-60
2022/12/26 02:42:57;;;;;;;11.77;6.13;;;4.40;99.90;;;;;;5064411;28;20060;-60
2022/12/26 02:48:35;;;;;;;8.38;5.22;;;4.30;99.90;;;;;;5071176;28;20037;-60
2022/12/26 03:14:42;;;;;;;8.63;4.65;;;4.40;99.90;;;;;;5072529;28;20451;-60
2022/12/26 03:17:20;;;;;;;9.98;4.93;;;4.50;99.90;;;;;;5069817;28;20481;-60
2022/12/26 03:19:58;;;;;;;10.38;4.70;;;4.50;99.90;;;;;;5072695;28;20048;-60
2022/12/26 03:22:32;;;;;;;11.82;5.53;;;4.50;99.90;;;;;;5070812;28;20033;-60
2022/12/26 03:27:49;;;;;;;8.85;5.20;;;4.40;99.90;;;;;;5067679;28;20051;-60
2022/12/26 03:33:01;;;;;;;10.90;5.65;;;4.40;99.90;;;;;;5070896;28;20051;-60
2022/12/26 03:35:31;;;;;;;12.77;5.20;;;4.30;99.90;;;;;;5069131;28;20068;-60
2022/12/26 03:38:08;;;;;;;12.65;5.88;;;4.30;99.90;;;;;;5066589;28;20059;-60
2022/12/26 04:19:26;;;;;;;5.82;3.67;;;4.10;99.90;;;;;;5067222;28;20042;-60
2022/12/26 04:45:14;;;;;;;10.25;5.20;;;4.00;99.90;;;;;;5070330;28;20048;-60
2022/12/26 04:50:10;;;;;;;7.63;4.72;;;4.00;99.90;;;;;;5068249;28;20110;-60
2022/12/26 04:50:28;;;;;;;10.52;4.70;;;4.00;99.90;;;;;;5070942;28;20382;-60
2022/12/26 04:52:57;;;;;;;9.85;5.60;;;4.00;99.90;;;;;;5069388;28;20051;-60
2022/12/26 04:55:26;;;;;;;11.07;5.00;;;4.00;99.90;;;;;;5070972;28;20445;-60
2022/12/26 04:57:53;;;;;;;8.48;4.85;;;3.90;99.90;;;;;;5061653;28;20037;-60
2022/12/26 05:00:23;;;;;;;10.30;5.03;;;3.90;99.90;;;;;;5069477;28;20044;-60
2022/12/26 05:11:31;;;;;;;10.55;5.60;;;3.90;99.90;;;;;;5070008;28;20056;-60
2022/12/26 05:13:59;;;;;;;9.02;5.97;;;3.90;99.90;;;;;;5069879;28;20501;-60
2022/12/26 05:30:28;;;;;;;12.05;6.20;;;4.00;99.90;;;;;;5069484;28;20036;-60
2022/12/26 05:35:40;;;;;;;9.57;5.10;;;4.00;99.90;;;;;;5062296;28;20097;-60
2022/12/26 05:38:09;;;;;;;9.68;5.97;;;4.00;99.90;;;;;;5066344;28;20036;-60
2022/12/26 05:40:36;;;;;;;9.68;5.50;;;4.00;99.90;;;;;;5067907;28;20051;-60
2022/12/26 05:43:02;;;;;;;14.88;7.28;;;4.00;99.90;;;;;;5069547;28;20451;-60
2022/12/26 05:45:31;;;;;;;12.25;6.60;;;4.00;99.90;;;;;;5069340;28;20040;-60
2022/12/26 05:48:00;;;;;;;12.85;7.55;;;4.00;99.90;;;;;;5074369;28;20437;-60
2022/12/26 05:50:28;;;;;;;11.70;7.38;;;3.90;99.90;;;;;;5068297;28;20041;-60
2022/12/26 05:52:58;;;;;;;11.70;7.47;;;3.90;99.90;;;;;;5068461;28;20060;-60
2022/12/26 05:55:25;;;;;;;14.85;8.35;;;3.90;99.90;;;;;;5072200;28;20059;-60
2022/12/26 05:57:52;;;;;;;15.07;8.10;;;3.90;99.90;;;;;;5069711;28;20086;-60
2022/12/26 06:00:19;;;;;;;15.60;7.07;;;3.90;99.90;;;;;;5070560;28;20044;-60
2022/12/26 06:02:47;;;;;;;18.58;9.45;;;3.90;99.90;;;;;;5073270;28;20029;-60
2022/12/26 06:05:14;;;;;;;16.65;8.73;;;3.90;99.90;;;;;;5070506;28;20098;-60
2022/12/26 06:07:40;;;;;;;14.18;9.23;;;3.90;99.90;;;;;;5072485;28;20560;-60
2022/12/26 06:10:08;;;;;;;13.63;7.70;;;3.90;99.90;;;;;;5069213;28;20037;-60
2022/12/26 06:12:35;;;;;;;14.80;7.07;;;3.90;99.90;;;;;;5073300;28;20067;-60
2022/12/26 06:15:02;;;;;;;13.95;6.78;;;3.80;99.90;;;;;;5068686;28;20052;-60
2022/12/26 06:17:29;;;;;;;11.80;7.03;;;3.80;99.90;;;;;;5073372;28;20390;-60
2022/12/26 06:19:56;;;;;;;11.40;6.47;;;3.80;99.90;;;;;;5072321;28;20032;-60
2022/12/26 06:22:24;;;;;;;9.88;4.75;;;3.90;99.90;;;;;;5089947;22;20093;-62
2022/12/26 06:24:51;;;;;;;10.38;6.15;;;3.90;99.90;;;;;;5065265;28;20148;-62
2022/12/26 06:27:17;;;;;;;10.48;6.13;;;3.80;99.90;;;;;;5070515;28;20037;-62
2022/12/26 06:29:44;;;;;;;7.22;4.18;;;3.90;99.90;;;;;;5071111;28;20485;-63
2022/12/26 06:32:11;;;;;;;8.98;4.63;;;3.90;99.90;;;;;;5072855;28;20083;-62
2022/12/26 06:34:38;;;;;;;9.85;4.32;;;3.90;99.90;;;;;;5056014;28;20127;-62
2022/12/26 06:37:05;;;;;;;6.50;3.65;;;3.90;99.90;;;;;;5072172;28;20550;-61
2022/12/26 06:39:31;;;;;;;5.50;3.13;;;4.00;99.90;;;;;;5059337;28;20583;-62
2022/12/26 06:41:58;;;;;;;9.25;5.13;;;4.00;99.90;;;;;;5046653;28;20044;-62
2022/12/26 06:44:26;;;;;;;11.65;5.45;;;4.00;99.90;;;;;;5051935;28;20694;-62
2022/12/26 06:46:52;;;;;;;8.80;5.63;;;3.90;99.90;;;;;;5052872;28;20037;-62
2022/12/26 06:49:19;;;;;;;11.45;5.80;;;3.90;99.90;;;;;;5048775;28;20034;-62
2022/12/26 06:51:46;;;;;;;7.80;4.93;;;4.00;99.90;;;;;;5051731;28;20060;-62
2022/12/26 06:54:13;;;;;;;9.30;5.32;;;4.00;99.90;;;;;;5052250;28;20049;-62
2022/12/26 06:56:40;;;;;;;8.80;4.63;;;4.00;99.90;;;;;;5052303;28;20045;-62
2022/12/26 06:59:09;;;;;;;8.35;5.32;;;3.90;99.90;;;;;;5059253;28;20029;-62
2022/12/26 07:01:36;;;;;;;8.57;4.68;;;3.90;99.90;;;;;;5071756;28;20044;-62
2022/12/26 07:04:04;;;;;;;;;;;3.90;99.90;;;;;;5060884;28;20110;-62
2022/12/26 07:06:36;;;;;;;8.50;5.13;;;3.90;99.90;;;;;;5071866;28;19920;-62
2022/12/26 07:09:13;;;;;;;10.18;5.30;;;3.90;99.90;;;;;;5053790;28;20064;-63
2022/12/26 07:11:43;;;;;;;9.25;4.88;;;4.00;99.90;;;;;;5051975;28;20580;-62
2022/12/26 07:14:10;;;;;;;10.15;4.97;;;4.00;99.90;;;;;;5055661;28;20051;-62
2022/12/26 07:16:39;;;;;;;9.98;5.30;;;4.00;99.90;;;;;;5069974;28;20036;-62
2022/12/26 07:19:08;;;;;;;10.60;4.65;;;4.00;99.90;;;;;;5052403;28;20094;-62
2022/12/26 07:21:35;;;;;;;11.10;5.40;;;3.90;99.90;;;;;;5051074;28;20489;-62
2022/12/26 07:24:14;;;;;;;8.82;4.75;;;3.90;99.90;;;;;;5054930;28;20515;-62
2022/12/26 07:26:41;;;;;;;13.13;5.43;;;3.90;99.90;;;;;;5061082;28;20049;-62
2022/12/26 07:29:10;;;;;;;9.85;5.05;;;3.80;99.90;;;;;;5060360;28;20036;-62
2022/12/26 07:31:37;;;;;;;11.65;6.03;;;3.70;99.90;;;;;;5068383;28;20516;-62
2022/12/26 07:34:03;;;;;;;11.80;6.25;;;3.80;99.90;;;;;;5071578;28;20434;-62
2022/12/26 07:36:30;;;;;;;8.52;5.03;;;3.80;99.90;;;;;;5063809;28;20049;-62
2022/12/26 07:38:57;;;;;;;9.80;5.57;;;3.80;99.90;;;;;;5063225;28;20090;-62
2022/12/26 07:44:10;;;;;;;9.32;5.35;;;3.80;99.90;;;;;;5051943;28;20041;-62
2022/12/26 07:46:37;;;;;;;10.30;5.63;;;3.80;99.90;;;;;;5054061;28;20072;-62
2022/12/26 07:49:04;;;;;;;8.95;4.82;;;3.80;99.90;;;;;;5072023;28;20055;-62
2022/12/26 07:51:31;;;;;;;15.50;6.60;;;3.90;99.90;;;;;;5058983;28;20044;-62
2022/12/26 07:53:58;;;;;;;10.10;5.97;;;3.90;99.90;;;;;;5046662;28;20498;-62
2022/12/26 07:56:25;;;;;;;11.43;5.88;;;3.90;99.90;;;;;;5049543;28;20083;-62
2022/12/26 07:58:52;;;;;;;12.60;7.53;;;3.90;99.90;;;;;;5051564;28;20087;-62
2022/12/26 08:01:18;;;;;;;12.23;6.40;;;3.90;99.90;;;;;;5050144;28;20037;-62
2022/12/26 08:03:51;;;;;;;8.98;5.78;;;4.00;99.90;;;;;;5043456;28;20409;-62
2022/12/26 08:06:18;;;;;;;20.77;9.77;;;3.90;99.90;;;;;;5061960;28;20051;-62
2022/12/26 08:08:45;;;;;;;13.75;7.13;;;4.00;99.90;;;;;;5070058;28;20469;-62
2022/12/26 08:11:22;;;;;;;13.63;7.38;;;4.00;99.90;;;;;;5054796;28;20068;-62
2022/12/26 08:13:50;;;;;;;21.20;11.18;;;4.00;99.90;;;;;;5043046;28;20041;-62
2022/12/26 08:16:18;;;;;;;15.50;7.82;;;4.00;99.90;;;;;;5050088;28;20048;-62
2022/12/26 08:18:45;;;;;;;11.63;6.63;;;4.10;99.90;;;;;;5070450;28;20094;-62
2022/12/26 08:21:12;;;;;;;5.95;3.60;;;4.10;99.90;;;;;;5049719;28;20037;-62
2022/12/26 08:23:38;;;;;;;13.63;7.30;;;4.10;99.90;;;;;;5070282;28;20076;-62
2022/12/26 08:26:07;;;;;;;14.75;7.03;;;4.10;99.90;;;;;;5050466;28;20041;-62
2022/12/26 08:28:34;;;;;;;14.55;8.07;;;4.10;99.90;;;;;;5041959;28;20052;-62
2022/12/26 08:31:06;;;;;;;12.05;5.55;;;4.10;99.90;;;;;;5055142;28;20036;-62
2022/12/26 08:33:33;;;;;;;15.80;7.88;;;4.10;99.90;;;;;;5048101;28;20412;-62
2022/12/26 08:36:04;;;;;;;37.10;15.35;;;4.20;99.90;;;;;;5051072;28;20049;-62
2022/12/26 08:38:31;;;;;;;9.52;5.70;;;4.10;99.90;;;;;;5041633;28;20049;-62
2022/12/26 08:40:59;;;;;;;8.93;4.97;;;4.10;99.90;;;;;;5047501;28;20083;-62
2022/12/26 08:43:27;;;;;;;7.45;4.97;;;4.00;99.90;;;;;;5066149;28;20405;-62
2022/12/26 08:46:13;;;;;;;11.88;5.50;;;4.00;99.90;;;;;;5062122;28;20045;-62
2022/12/26 08:48:40;;;;;;;17.00;6.40;;;4.00;99.90;;;;;;5050151;28;20033;-62
2022/12/26 08:51:13;;;;;;;14.15;7.53;;;4.10;99.90;;;;;;5042302;28;20098;-62
2022/12/26 08:53:40;;;;;;;33.50;14.15;;;4.20;99.90;;;;;;5046583;28;20071;-62
2022/12/26 08:56:11;;;;;;;20.55;9.48;;;4.30;99.90;;;;;;5050602;28;20486;-62
2022/12/26 08:58:37;;;;;;;18.70;9.10;;;4.50;99.90;;;;;;5052973;28;20681;-62
2022/12/26 09:01:13;;;;;;;15.10;6.95;;;4.50;99.90;;;;;;5053598;28;20129;-62
2022/12/26 09:03:40;;;;;;;11.48;6.53;;;4.70;99.90;;;;;;5045975;28;20247;-62
2022/12/26 09:06:07;;;;;;;;;;;4.70;99.90;;;;;;5069969;28;20693;-62
2022/12/26 09:08:35;;;;;;;9.48;5.90;;;4.70;99.90;;;;;;5056847;28;19924;-62
2022/12/26 09:11:03;;;;;;;11.02;6.10;;;4.90;99.90;;;;;;5046706;28;20045;-62
2022/12/26 09:13:32;;;;;;;8.27;5.13;;;5.00;99.90;;;;;;5049323;28;20073;-62
2022/12/26 09:16:07;;;;;;;18.02;8.27;;;5.00;99.90;;;;;;5050072;28;20555;-62
2022/12/26 09:18:34;;;;;;;12.32;6.88;;;5.00;99.90;;;;;;5049911;28;20455;-62
2022/12/26 09:21:03;;;;;;;13.30;7.45;;;4.90;99.90;;;;;;5050132;28;20041;-62
2022/12/26 09:23:30;;;;;;;15.55;7.65;;;4.60;99.90;;;;;;5053677;28;20068;-62
2022/12/26 09:26:08;;;;;;;11.35;6.35;;;4.60;99.90;;;;;;5053911;28;20049;-62
2022/12/26 09:28:36;;;;;;;10.80;5.70;;;4.80;99.90;;;;;;5051590;28;20041;-62
2022/12/26 09:31:05;;;;;;;14.30;6.40;;;4.90;99.90;;;;;;5062728;28;20102;-62
2022/12/26 09:33:35;;;;;;;12.85;6.05;;;4.80;99.90;;;;;;5050684;28;20904;-62
2022/12/26 09:36:07;;;;;;;11.70;5.57;;;4.90;99.90;;;;;;5052749;28;20122;-62
2022/12/26 09:38:41;;;;;;;15.10;6.63;;;4.80;99.90;;;;;;5048403;28;20102;-62
2022/12/26 09:41:26;;;;;;;;;;;4.90;99.90;;;;;;5051195;28;20041;-62
2022/12/26 09:44:12;;;;;;;13.07;6.47;;;5.00;99.90;;;;;;5048527;28;19925;-62
2022/12/26 09:46:51;;;;;;;20.35;6.75;;;5.00;99.90;;;;;;5051095;28;20064;-62
2022/12/26 09:49:30;;;;;;;15.85;7.75;;;4.90;99.90;;;;;;5049580;28;20037;-62
2022/12/26 09:52:05;;;;;;;9.00;5.45;;;4.90;99.90;;;;;;5051989;28;20041;-62
2022/12/26 09:54:49;;;;;;;14.32;6.78;;;4.80;99.90;;;;;;5053496;28;20069;-62
2022/12/26 09:57:22;;;;;;;16.85;8.02;;;4.70;99.90;;;;;;5052409;28;20091;-62
2022/12/26 09:59:56;;;;;;;12.65;6.28;;;4.60;99.90;;;;;;5045769;28;20041;-62
2022/12/26 10:02:24;;;;;;;15.73;6.95;;;4.50;99.90;;;;;;5051602;28;20049;-62
2022/12/26 10:04:53;;;;;;;13.52;7.28;;;4.50;99.90;;;;;;5052309;28;20071;-62
2022/12/26 10:07:23;;;;;;;14.23;6.75;;;4.50;99.90;;;;;;5053202;28;20525;-62
2022/12/26 10:10:11;;;;;;;12.98;6.82;;;4.50;99.90;;;;;;5049488;28;20048;-62
2022/12/26 10:12:44;;;;;;;14.38;5.93;;;4.60;99.90;;;;;;5045155;28;20090;-62
2022/12/26 10:15:21;;;;;;;13.43;6.75;;;4.70;99.90;;;;;;5052284;28;20076;-62
2022/12/26 10:18:05;;;;;;;13.93;7.32;;;4.80;99.90;;;;;;5052197;28;20041;-62
2022/12/26 10:20:42;;;;;;;12.23;6.68;;;4.90;99.90;;;;;;5052153;28;20071;-62
2022/12/26 10:23:31;;;;;;;10.45;6.68;;;5.00;99.90;;;;;;5052219;28;20029;-62
2022/12/26 10:26:08;;;;;;;12.10;7.43;;;5.10;99.90;;;;;;5051901;28;20375;-62
2022/12/26 10:28:50;;;;;;;10.55;6.47;;;5.10;99.90;;;;;;5045989;28;20057;-62
2022/12/26 10:31:28;;;;;;;14.52;7.10;;;5.30;99.90;;;;;;5052112;28;20223;-62
2022/12/26 10:33:55;;;;;;;14.18;7.00;;;5.30;99.90;;;;;;5050996;28;20044;-62
2022/12/26 10:36:36;;;;;;;14.23;7.53;;;5.40;99.90;;;;;;5045340;28;20452;-62
2022/12/26 10:39:09;;;;;;;11.35;6.63;;;5.40;99.90;;;;;;5051436;28;20099;-62
2022/12/26 10:41:41;;;;;;;10.90;6.45;;;5.40;99.90;;;;;;5051152;28;20069;-62
2022/12/26 10:44:11;;;;;;;12.73;6.28;;;5.40;99.90;;;;;;5051741;28;20409;-62
2022/12/26 10:46:42;;;;;;;11.32;6.10;;;5.20;99.90;;;;;;5044671;28;20041;-62
2022/12/26 10:49:12;;;;;;;9.55;5.57;;;5.20;99.90;;;;;;5051495;28;20555;-62
2022/12/26 10:51:38;;;;;;;10.88;5.68;;;5.20;99.90;;;;;;5052220;28;20052;-62
2022/12/26 10:54:16;;;;;;;9.15;5.65;;;5.20;99.90;;;;;;5045512;28;20041;-62
2022/12/26 10:56:46;;;;;;;9.75;5.72;;;5.20;99.90;;;;;;5052317;28;20118;-62
2022/12/26 10:59:17;;;;;;;10.57;5.47;;;5.30;99.90;;;;;;5051528;28;20091;-62
2022/12/26 11:01:47;;;;;;;8.85;5.22;;;5.40;99.90;;;;;;5051750;28;20076;-62
2022/12/26 11:04:23;;;;;;;8.65;5.30;;;5.40;99.90;;;;;;5050006;28;20041;-62
2022/12/26 11:07:11;;;;;;;9.98;5.65;;;5.40;99.90;;;;;;5051387;28;20055;-62
2022/12/26 11:09:44;;;;;;;11.70;5.75;;;5.40;99.90;;;;;;5052180;28;20123;-62
2022/12/26 11:12:33;;;;;;;7.53;5.50;;;5.40;99.90;;;;;;5046591;28;20049;-62
2022/12/26 11:15:04;;;;;;;9.05;5.18;;;5.50;99.90;;;;;;5051831;28;20099;-62
2022/12/26 11:17:38;;;;;;;8.85;5.60;;;5.60;99.90;;;;;;5041496;28;20408;-62
2022/12/26 11:20:13;;;;;;;9.55;5.63;;;5.80;99.90;;;;;;5032320;28;20061;-62
2022/12/26 11:22:41;;;;;;;7.85;4.68;;;5.90;99.90;;;;;;5038905;28;20037;-62
2022/12/26 11:25:08;;;;;;;6.90;4.40;;;6.00;99.90;;;;;;5051832;28;20638;-62
2022/12/26 11:27:47;;;;;;;5.80;4.07;;;6.20;99.90;;;;;;5044004;28;20048;-61
2022/12/26 11:30:32;;;;;;;6.15;4.13;;;6.30;99.90;;;;;;5043874;28;20529;-62
2022/12/26 11:33:06;;;;;;;7.05;3.88;;;6.50;99.90;;;;;;5051038;28;20048;-62
2022/12/26 11:36:06;;;;;;;6.70;3.42;;;6.70;99.90;;;;;;5044247;28;20049;-62
2022/12/26 11:38:56;;;;;;;5.97;3.88;;;6.60;99.90;;;;;;5045542;28;20037;-62
2022/12/26 11:41:32;;;;;;;5.95;3.85;;;6.60;99.90;;;;;;5036393;28;20042;-63
2022/12/26 11:44:11;;;;;;;6.00;3.58;;;6.60;99.90;;;;;;5046767;28;20497;-62
2022/12/26 11:47:09;;;;;;;4.57;3.15;;;6.60;99.90;;;;;;5044099;28;20041;-63
2022/12/26 11:49:46;;;;;;;5.88;3.22;;;6.80;99.90;;;;;;5026754;28;20098;-62
2022/12/26 11:52:50;;;;;;;6.40;3.20;;;6.90;99.90;;;;;;5047201;28;20033;-63
2022/12/26 11:55:28;;;;;;;7.07;3.20;;;7.10;99.90;;;;;;5039908;28;20087;-63
2022/12/26 11:57:57;;;;;;;7.03;3.60;;;7.10;99.90;;;;;;5049147;28;20075;-63
2022/12/26 12:00:26;;;;;;;4.65;3.63;;;7.20;99.90;;;;;;5049695;28;20055;-62
2022/12/26 12:02:53;;;;;;;5.97;3.85;;;7.40;99.90;;;;;;5050694;28;20490;-63
2022/12/26 12:05:51;;;;;;;7.55;3.55;;;7.60;99.90;;;;;;5047162;28;20043;-62
2022/12/26 12:08:27;;;;;;;7.37;3.77;;;7.60;99.90;;;;;;5051161;28;20063;-63
2022/12/26 12:11:20;;;;;;;8.50;4.28;;;7.60;99.90;;;;;;5050300;28;20118;-62
2022/12/26 12:13:54;;;;;;;5.60;3.28;;;7.60;99.90;;;;;;5041584;28;20060;-62
2022/12/26 12:16:21;;;;;;;4.03;2.80;;;7.80;99.90;;;;;;5048139;28;20560;-63
2022/12/26 12:18:59;;;;;;;3.88;2.05;;;7.90;99.90;;;;;;5050684;28;20037;-63
2022/12/26 12:21:42;;;;;;;7.10;4.20;;;8.00;99.90;;;;;;5048788;28;20042;-63
2022/12/26 12:24:28;;;;;;;6.95;3.55;;;8.00;99.90;;;;;;5048166;28;20445;-62
2022/12/26 12:27:09;;;;;;;10.23;4.45;;;8.00;99.90;;;;;;5045341;28;20048;-63
2022/12/26 12:30:14;;;;;;;6.25;3.92;;;8.00;99.90;;;;;;5049898;28;20041;-63
2022/12/26 12:33:00;;;;;;;6.22;4.03;;;8.00;99.90;;;;;;5042905;28;20049;-62
2022/12/26 12:35:36;;;;;;;6.07;3.50;;;7.90;99.90;;;;;;5054921;28;20071;-62
2022/12/26 12:38:03;;;;;;;6.00;3.58;;;7.80;99.90;;;;;;5050154;28;20095;-62
2022/12/26 12:40:55;;;;;;;6.78;4.15;;;7.80;99.90;;;;;;5033341;28;20037;-62
2022/12/26 12:44:03;;;;;;;5.80;2.95;;;7.90;99.90;;;;;;5033675;28;20038;-62
2022/12/26 12:47:11;;;;;;;5.18;3.08;;;7.80;99.90;;;;;;5046072;28;20505;-62
2022/12/26 12:49:58;;;;;;;4.72;3.25;;;7.80;99.90;;;;;;4990307;28;20052;-62
2022/12/26 12:52:57;;;;;;;4.65;3.20;;;7.90;99.90;;;;;;5048797;28;20509;-62
2022/12/26 12:55:36;;;;;;;;;;;7.90;99.90;;;;;;5034457;28;21749;-62
2022/12/26 12:58:24;;;;;;;9.15;3.38;;;7.90;99.90;;;;;;5054141;22;19971;-72
2022/12/26 13:01:31;;;;;;;7.25;3.67;;;7.80;99.90;;;;;;5033027;28;20154;-73
2022/12/26 13:04:21;;;;;;;6.43;3.67;;;7.80;99.90;;;;;;5046401;28;20456;-73
2022/12/26 13:06:54;;;;;;;6.55;3.75;;;7.80;99.90;;;;;;5048850;28;20066;-73
2022/12/26 13:09:33;;;;;;;5.63;3.67;;;7.80;99.90;;;;;;5081403;28;20047;-73
2022/12/26 13:12:07;;;;;;;6.10;3.50;;;7.90;99.90;;;;;;5087094;28;20428;-73
2022/12/26 13:14:41;;;;;;;6.70;4.07;;;7.80;99.90;;;;;;5087525;28;20110;-74
2022/12/26 13:17:24;;;;;;;6.03;3.55;;;7.90;99.90;;;;;;5087584;28;20050;-73
2022/12/26 13:20:21;;;;;;;8.23;4.18;;;7.90;99.90;;;;;;5088948;28;20060;-73
2022/12/26 13:25:54;;;;;;;9.05;3.88;;;7.90;99.90;;;;;;5087983;28;20322;-73
2022/12/26 13:28:29;;;;;;;6.93;3.85;;;7.80;99.90;;;;;;5089281;28;20098;-72
2022/12/26 13:30:56;;;;;;;6.82;4.30;;;7.90;99.90;;;;;;5085657;28;20070;-73
2022/12/26 13:33:23;;;;;;;7.90;3.80;;;7.90;99.90;;;;;;5079010;28;20404;-73
2022/12/26 13:35:57;;;;;;;6.47;3.70;;;8.00;99.90;;;;;;5088485;28;20028;-73
2022/12/26 13:38:45;;;;;;;8.18;4.30;;;8.00;99.90;;;;;;5084353;28;20040;-72
2022/12/26 13:44:22;;;;;;;5.93;3.28;;;8.00;99.90;;;;;;5085478;28;20442;-74
2022/12/26 13:46:48;;;;;;;5.63;3.50;;;8.10;99.90;;;;;;5086487;28;20179;-74
2022/12/26 13:49:35;;;;;;;6.72;3.97;;;8.00;99.90;;;;;;5085505;28;20047;-73
2022/12/26 13:52:11;;;;;;;6.70;4.00;;;7.90;99.90;;;;;;5061906;28;20439;-62
2022/12/26 13:54:47;;;;;;;10.30;5.75;;;7.90;99.90;;;;;;5088767;28;20721;-69
2022/12/26 13:57:44;;;;;;;13.70;5.10;;;7.80;99.90;;;;;;5074833;28;20040;-69
2022/12/26 14:00:41;;;;;;;9.32;4.20;;;7.80;99.90;;;;;;5084813;28;20040;-69
2022/12/26 14:03:26;;;;;;;8.48;4.10;;;7.80;99.90;;;;;;5088784;28;20044;-69
2022/12/26 14:06:18;;;;;;;6.97;4.28;;;7.80;99.90;;;;;;5083590;28;20036;-69
2022/12/26 14:08:54;;;;;;;6.97;4.53;;;7.80;99.90;;;;;;5084953;28;20044;-69
2022/12/26 14:11:45;;;;;;;8.73;4.68;;;7.80;99.90;;;;;;5081082;28;20045;-68
2022/12/26 14:14:29;;;;;;;10.43;5.10;;;7.80;99.90;;;;;;5082148;28;20425;-69
2022/12/26 14:17:06;;;;;;;10.70;6.40;;;7.70;99.90;;;;;;5091836;28;20036;-69
2022/12/26 14:19:51;;;;;;;8.70;5.82;;;7.70;99.90;;;;;;5090844;28;20063;-68
2022/12/26 14:22:32;;;;;;;7.32;5.00;;;7.70;99.90;;;;;;5084411;28;20067;-67
2022/12/26 14:25:22;;;;;;;8.98;5.35;;;7.70;99.90;;;;;;5074776;28;20155;-66
2022/12/26 14:28:09;;;;;;;10.23;5.10;;;7.70;99.90;;;;;;5081458;28;20498;-66
2022/12/26 14:30:59;;;;;;;10.68;4.82;;;7.60;99.90;;;;;;5079249;28;20044;-64
2022/12/26 14:33:48;;;;;;;14.38;6.90;;;7.50;99.90;;;;;;5077040;28;20049;-64
2022/12/26 14:36:24;;;;;;;12.32;6.68;;;7.60;99.90;;;;;;5089425;28;20036;-68
2022/12/26 14:39:03;;;;;;;25.33;12.60;;;7.60;99.90;;;;;;5070340;28;20071;-65
2022/12/26 14:44:56;;;;;;;22.77;10.85;;;7.60;99.90;;;;;;5086810;28;20067;-69
2022/12/26 14:47:43;;;;;;;21.08;11.65;;;7.50;99.90;;;;;;5091299;28;20061;-67
2022/12/26 14:50:37;;;;;;;18.70;9.53;;;7.50;99.90;;;;;;5082029;28;20036;-66
2022/12/26 14:53:19;;;;;;;21.85;9.70;;;7.50;99.90;;;;;;5081960;28;20489;-67
2022/12/26 14:55:52;;;;;;;21.67;11.02;;;7.50;99.90;;;;;;5083232;28;20036;-68
2022/12/26 14:58:47;;;;;;;22.92;10.95;;;7.50;99.90;;;;;;5090691;28;20063;-68
2022/12/26 15:01:14;;;;;;;36.72;17.75;;;7.50;99.90;;;;;;5083649;28;20158;-66
2022/12/26 15:03:55;;;;;;;26.75;13.35;;;7.50;99.90;;;;;;5081008;28;20055;-65
2022/12/26 15:06:41;;;;;;;28.23;13.55;;;7.40;99.90;;;;;;5082110;28;20036;-67
2022/12/26 15:09:45;;;;;;;19.77;10.48;;;7.50;99.90;;;;;;5088733;28;20377;-66
2022/12/26 15:12:30;;;;;;;17.95;9.55;;;7.50;99.90;;;;;;5073909;28;20036;-71
2022/12/26 15:15:07;;;;;;;19.38;9.27;;;7.40;99.90;;;;;;5079320;28;20041;-68
2022/12/26 15:17:55;;;;;;;19.35;9.52;;;7.40;99.90;;;;;;5075900;28;20048;-71
2022/12/26 15:20:59;;;;;;;27.67;13.30;;;7.40;99.90;;;;;;5074211;28;20041;-71
2022/12/26 15:23:35;;;;;;;17.75;9.63;;;7.40;99.90;;;;;;5080074;28;20043;-67
2022/12/26 15:26:27;;;;;;;15.05;8.13;;;7.40;99.90;;;;;;5079996;28;20048;-67
2022/12/26 15:29:20;;;;;;;14.60;8.05;;;7.40;99.90;;;;;;5088306;28;20041;-68
2022/12/26 15:32:02;;;;;;;10.20;6.20;;;7.40;99.90;;;;;;5073552;28;20562;-70
2022/12/26 15:34:58;;;;;;;11.85;5.45;;;7.40;99.90;;;;;;5083732;28;20048;-69
2022/12/26 15:37:36;;;;;;;9.23;5.10;;;7.40;99.90;;;;;;5090525;28;20044;-70
2022/12/26 15:40:13;;;;;;;10.23;5.15;;;7.40;99.90;;;;;;5091896;28;20044;-69
2022/12/26 15:43:27;;;;;;;11.20;5.32;;;7.30;99.90;;;;;;5085881;28;20036;-68
2022/12/26 15:46:19;;;;;;;10.93;5.93;;;7.30;99.90;;;;;;5091232;28;20044;-70
2022/12/26 15:48:55;;;;;;;9.27;5.72;;;7.30;99.90;;;;;;5091869;28;20059;-65